Latest Weather Observations for Kalgoorlie-Boulder

IDW60801

Issued at 6:03 pm WST Sunday 22 January 2017 (issued every 30 minutes, with the page automatically refreshed every 10 minutes)

About weather observations | Map of weather stations | Latest weather observations for WA | Other Formats
Station Details ID: 012038 Name: KALGOORLIE-BOULDER AIRPORT Lat: -30.78 Lon: 121.45 Height: 365.3 m
Data from the previous 72 hours. | See also: Recent months at Kalgoorlie-Boulder
Date/Time
WST
Temp
°C
App
Temp
°C
Dew
Point
°C
Rel
Hum
%
Delta-T
°C
Wind Press
QNH
hPa
Press
MSL
hPa
Rain since
9am
mm
Dir  Spd
km/h
Gust
km/h
Spd
kts
Gust
kts
22/06:00pm 31.6 30.8 17.9 44 8.9 S 19 30 10 16 1004.2 1002.0 7.0
22/05:30pm 32.1 30.9 17.6 42 9.4 SSE 20 33 11 18 1003.6 - 7.0
22/05:00pm 31.1 29.3 20.4 53 7.2 S 30 48 16 26 1003.3 - 7.0
22/04:55pm 31.4 29.6 20.4 52 7.4 S 30 48 16 26 1003.2 - 7.0
22/04:30pm 32.8 34.1 19.3 45 9.0 N 11 17 6 9 1002.3 - 7.0
22/04:00pm 33.5 34.4 18.4 40 9.9 WNW 11 20 6 11 1003.0 - 7.0
22/03:30pm 33.7 33.0 18.2 39 10.2 W 19 26 10 14 1003.2 - 7.0
22/03:00pm 31.7 32.6 21.5 54 7.0 NW 19 24 10 13 1002.0 999.8 7.0
22/02:52pm 29.6 31.9 22.8 67 4.7 NNW 15 24 8 13 1002.0 - 7.0
22/02:38pm 28.0 26.4 20.8 65 4.8 NE 30 82 16 44 1001.9 - 7.0
22/02:35pm 26.3 27.8 23.0 82 2.3 NE 20 82 11 44 1002.7 - 6.8
22/02:30pm 24.1 15.5 18.3 70 3.7 NNW 61 82 33 44 1003.8 - 4.2
22/02:28pm 28.2 24.5 18.3 55 6.4 N 35 80 19 43 1003.4 - 3.2
22/02:27pm 29.1 26.3 19.4 55 6.4 N 33 54 18 29 1003.4 - 3.0
22/02:26pm 29.6 26.6 18.7 52 7.1 N 32 48 17 26 1003.5 - 2.6
22/02:21pm 34.2 30.9 17.0 36 11.1 N 30 39 16 21 1002.2 - 0.0
22/02:00pm 38.6 37.9 14.4 24 15.3 N 11 17 6 9 1001.9 - 0.0
22/01:30pm 39.9 37.9 15.5 24 15.7 N 20 35 11 19 1002.5 - 0.0
22/01:00pm 38.3 36.2 14.8 25 15.0 N 19 30 10 16 1003.2 - 0.0
22/12:30pm 38.4 37.0 15.5 26 14.7 NW 17 37 9 20 1003.7 - 0.0
22/12:00pm 38.0 36.5 16.3 27 14.1 N 19 32 10 17 1004.1 1001.8 0.0
22/11:30am 36.7 35.6 16.3 30 13.2 N 17 33 9 18 1004.6 - 0.0
22/11:00am 35.9 33.0 15.1 29 13.2 N 24 32 13 17 1005.1 - 0.0
22/10:30am 35.5 33.4 15.3 30 12.8 N 20 33 11 18 1005.5 - 0.0
22/10:00am 34.7 31.8 15.1 31 12.4 N 24 33 13 18 1006.1 - 0.0
22/09:30am 33.4 31.6 15.4 34 11.4 N 19 28 10 15 1006.4 - 0.0
22/09:00am 32.3 30.6 15.7 36 10.5 N 19 26 10 14 1006.6 1004.3 0.0
22/08:30am 31.1 29.5 15.9 40 9.6 NNE 19 26 10 14 1006.8 - 0.0
22/08:00am 30.4 28.8 16.0 41 9.1 N 19 26 10 14 1007.0 - 0.0
22/07:30am 28.7 27.3 16.9 48 7.5 NNE 20 30 11 16 1007.1 - 0.0
22/07:00am 27.3 25.9 16.9 53 6.6 NNE 20 30 11 16 1007.4 - 0.0
22/06:30am 26.2 24.7 16.2 54 6.2 NNE 19 30 10 16 1007.7 - 0.0
22/06:00am 25.4 23.9 15.4 54 6.2 NE 17 24 9 13 1007.4 1005.2 0.0
22/05:30am 24.9 23.7 15.0 54 6.0 NE 15 19 8 10 1007.4 - 0.0
22/05:00am 25.0 23.3 14.8 53 6.2 NE 17 22 9 12 1007.2 - 0.0
22/04:30am 25.1 24.0 14.3 51 6.5 NE 13 15 7 8 1007.2 - 0.0
22/04:00am 25.4 24.2 13.9 49 6.9 NNE 13 24 7 13 1007.1 - 0.0
22/03:30am 25.6 23.7 13.1 46 7.4 NE 15 20 8 11 1006.8 - 0.0
22/03:00am 26.1 23.7 12.5 42 8.0 NE 17 24 9 13 1006.7 1004.5 0.0
22/02:30am 26.4 24.0 11.3 39 8.7 NE 15 22 8 12 1006.5 - 0.0
22/02:00am 26.9 23.9 10.6 36 9.3 NE 17 26 9 14 1006.4 - 0.0
22/01:30am 27.3 23.9 9.2 32 10.1 NE 17 24 9 13 1006.3 - 0.0
22/01:00am 28.0 23.6 6.7 26 11.5 ENE 19 26 10 14 1006.1 - 0.0
22/12:30am 28.5 24.0 6.0 24 12.0 ENE 19 30 10 16 1006.2 - 0.0
22/12:00am 27.6 23.9 4.6 23 12.0 E 13 17 7 9 1006.4 1004.1 0.0
 
Date/Time
WST
Temp
°C
App
Temp
°C
Dew
Point
°C
Rel
Hum
%
Delta-T
°C
Wind Press
QNH
hPa
Press
MSL
hPa
Rain since
9am
mm
Dir  Spd
km/h
Gust
km/h
Spd
kts
Gust
kts
21/11:30pm 27.4 23.4 5.1 24 11.6 ESE 15 17 8 9 1006.4 - 0.0
21/11:00pm 28.8 24.3 4.3 21 12.7 ESE 17 22 9 12 1006.4 - 0.0
21/10:30pm 28.2 24.2 5.1 23 12.1 ESE 15 20 8 11 1006.5 - 0.0
21/10:00pm 28.6 25.0 4.8 22 12.4 ESE 13 19 7 10 1006.4 - 0.0
21/09:30pm 29.8 25.8 5.1 21 13.1 ESE 15 20 8 11 1006.5 - 0.0
21/09:00pm 30.8 26.4 4.5 19 13.9 E 17 24 9 13 1006.6 1004.3 0.0
21/08:30pm 31.3 26.5 4.9 19 14.0 E 19 24 10 13 1006.3 - 0.0
21/08:00pm 31.6 27.3 5.2 19 14.1 E 17 22 9 12 1006.2 - 0.0
21/07:30pm 32.2 27.6 5.7 19 14.4 E 19 26 10 14 1005.9 - 0.0
21/07:00pm 33.1 27.5 5.6 18 14.9 ESE 24 30 13 16 1005.8 - 0.0
21/06:30pm 34.0 29.5 6.3 18 15.3 ESE 19 24 10 13 1005.5 - 0.0
21/06:00pm 34.6 32.5 6.8 18 15.6 NE 7 13 4 7 1005.4 1003.2 0.0
21/05:30pm 34.5 32.6 7.5 19 15.2 ENE 7 15 4 8 1005.2 - 0.0
21/05:00pm 34.6 32.9 7.6 19 15.3 ESE 6 15 3 8 1005.1 - 0.0
21/04:30pm 35.2 32.9 7.3 18 15.7 W 9 20 5 11 1005.2 - 0.0
21/04:00pm 34.7 31.9 8.4 20 15.0 SSW 13 24 7 13 1005.3 - 0.0
21/03:30pm 34.4 31.9 8.2 20 14.9 S 11 22 6 12 1005.5 - 0.0
21/03:00pm 33.6 31.9 8.3 21 14.4 SSE 7 20 4 11 1005.9 1003.7 0.0
21/02:30pm 33.9 31.5 8.5 21 14.5 SSW 11 17 6 9 1006.5 - 0.0
21/02:00pm 33.6 30.9 9.0 22 14.1 WSW 13 19 7 10 1007.0 - 0.0
21/01:30pm 32.7 30.5 9.5 24 13.4 NNE 11 19 6 10 1007.3 - 0.0
21/01:00pm 32.6 30.6 10.0 25 13.1 S 11 22 6 12 1007.8 - 0.0
21/12:30pm 32.5 30.5 11.6 28 12.4 NE 13 20 7 11 1008.2 - 0.0
21/12:00pm 32.3 29.9 11.5 28 12.4 E 15 20 8 11 1008.6 1006.4 0.0
21/11:30am 30.6 29.4 11.5 30 11.3 E 9 20 5 11 1009.0 - 0.0
21/11:00am 29.8 28.2 12.7 35 10.2 ENE 13 20 7 11 1009.5 - 0.0
21/10:30am 28.8 27.2 12.7 37 9.6 E 13 20 7 11 1009.8 - 0.0
21/10:00am 27.7 26.0 12.5 39 9.0 NE 13 20 7 11 1010.2 - 0.0
21/09:30am 27.1 25.2 13.1 42 8.3 E 15 22 8 12 1010.5 - 0.0
21/09:00am 25.6 24.4 12.8 45 7.6 E 11 19 6 10 1010.8 1008.6 0.0
21/08:30am 24.0 22.3 12.3 48 6.8 E 13 20 7 11 1011.0 - 0.0
21/08:00am 23.5 21.8 12.5 50 6.4 E 13 19 7 10 1011.2 - 0.0
21/07:30am 22.1 19.6 12.4 54 5.6 E 17 22 9 12 1011.3 - 0.0
21/07:00am 21.1 18.6 12.3 57 5.0 E 17 20 9 11 1011.4 - 0.0
21/06:30am 20.3 17.8 12.3 60 4.6 E 17 22 9 12 1011.1 - 0.0
21/06:00am 19.9 17.4 12.4 62 4.3 E 17 24 9 13 1010.8 1008.6 0.0
21/05:30am 19.6 17.1 12.4 63 4.1 E 17 24 9 13 1010.5 - 0.0
21/05:00am 19.6 17.9 12.6 64 4.0 E 13 19 7 10 1010.4 - 0.0
21/04:30am 20.2 17.7 12.4 61 4.5 E 17 22 9 12 1010.0 - 0.0
21/04:00am 20.6 17.5 12.1 58 4.8 E 20 26 11 14 1009.8 - 0.0
21/03:30am 20.6 17.7 11.0 54 5.4 E 17 22 9 12 1009.5 - 0.0
21/03:00am 20.5 17.8 10.3 52 5.6 ESE 15 19 8 10 1009.4 1007.2 0.0
21/02:30am 20.8 17.2 10.0 50 5.9 ESE 19 22 10 12 1009.7 - 0.0
21/02:00am 21.4 18.1 9.6 47 6.4 SE 17 24 9 13 1009.9 - 0.0
21/01:30am 22.2 18.5 9.4 44 7.0 ESE 19 24 10 13 1010.0 - 0.0
21/01:00am 23.2 19.9 8.1 38 8.1 ESE 15 20 8 11 1009.9 - 0.0
21/12:30am 23.2 19.8 7.7 37 8.3 ESE 15 24 8 13 1009.9 - 0.0
21/12:00am 23.1 20.4 7.2 36 8.4 SE 11 13 6 7 1009.9 1007.7 0.0
 
Date/Time
WST
Temp
°C
App
Temp
°C
Dew
Point
°C
Rel
Hum
%
Delta-T
°C
Wind Press
QNH
hPa
Press
MSL
hPa
Rain since
9am
mm
Dir  Spd
km/h
Gust
km/h
Spd
kts
Gust
kts
20/11:30pm 24.0 20.5 7.2 34 8.9 SE 15 19 8 10 1009.9 - 0.0
20/11:00pm 23.9 20.8 7.1 34 8.9 ESE 13 17 7 9 1010.1 - 0.0
20/10:30pm 25.1 21.5 6.8 31 9.7 SE 15 19 8 10 1010.1 - 0.0
20/10:00pm 25.6 22.9 7.2 31 9.9 SE 11 17 6 9 1010.1 - 0.0
20/09:30pm 25.7 23.1 7.8 32 9.7 SSE 11 17 6 9 1010.0 - 0.0
20/09:00pm 26.5 24.0 8.0 31 10.1 SSE 11 15 6 8 1009.9 1007.7 0.0
20/08:30pm 26.7 24.1 7.7 30 10.3 SSE 11 15 6 8 1009.7 - 0.0
20/08:00pm 27.3 24.6 7.2 28 10.9 SSE 11 15 6 8 1009.4 - 0.0
20/07:30pm 28.0 24.8 6.7 26 11.5 SE 13 17 7 9 1009.2 - 0.0
20/07:00pm 28.7 24.8 5.5 23 12.3 SSE 15 20 8 11 1008.9 - 0.0
20/06:30pm 29.5 25.4 6.2 23 12.5 SE 17 24 9 13 1008.6 - 0.0
20/06:00pm 30.2 25.7 6.8 23 12.8 SE 20 30 11 16 1008.0 1005.8 0.0
20/05:30pm 30.5 26.2 7.7 24 12.6 ESE 20 30 11 16 1007.7 - 0.0
20/05:00pm 31.2 27.5 6.3 21 13.5 SE 15 28 8 15 1007.5 - 0.0
20/04:30pm 31.5 27.5 6.5 21 13.7 E 17 22 9 12 1007.5 - 0.0
20/04:00pm 31.0 27.7 4.7 19 13.9 ESE 11 17 6 9 1007.7 - 0.0
20/03:30pm 30.2 27.8 6.8 23 12.8 E 9 19 5 10 1008.0 - 0.0
20/03:00pm 30.3 28.0 7.5 24 12.6 NE 9 15 5 8 1008.3 1006.1 0.0
20/02:30pm 30.3 28.7 8.1 25 12.4 NNW 6 9 3 5 1008.7 - 0.0
20/02:00pm 29.1 27.1 8.7 28 11.4 SSE 9 15 5 8 1009.2 - 0.0
20/01:30pm 28.4 26.3 9.6 31 10.6 ESE 11 22 6 12 1009.5 - 0.0
20/01:00pm 28.6 26.5 9.8 31 10.7 ENE 11 22 6 12 1009.9 - 0.0
20/12:30pm 26.8 25.3 10.5 36 9.3 NNE 9 17 5 9 1010.4 - 0.0
20/12:00pm 26.8 25.0 10.9 37 9.1 SE 11 19 6 10 1010.8 1008.6 0.0
20/11:30am 25.3 23.2 11.1 41 8.1 ESE 13 20 7 11 1011.2 - 0.0
20/11:00am 24.6 22.5 11.2 43 7.7 NE 13 22 7 12 1011.8 - 0.0
20/10:30am 24.0 21.6 11.3 45 7.2 ENE 15 26 8 14 1012.3 - 0.0
20/10:00am 23.5 20.7 11.5 47 6.9 E 17 28 9 15 1012.5 - 0.0
20/09:30am 21.9 18.4 11.0 50 6.1 E 20 30 11 16 1012.8 - 0.0
20/09:00am 21.3 18.1 11.1 52 5.7 E 19 28 10 15 1013.1 1010.9 0.0
20/08:30am 21.0 17.2 11.3 54 5.5 ESE 22 35 12 19 1013.2 - 0.0
20/08:00am 19.6 15.5 11.6 60 4.5 ESE 24 33 13 18 1013.3 - 0.0
20/07:30am 19.3 14.8 11.3 60 4.5 SE 26 33 14 18 1013.1 - 0.0
20/07:00am 19.1 15.3 11.2 60 4.4 SE 22 30 12 16 1012.8 - 0.0
20/06:30am 18.4 14.9 11.0 62 4.1 SE 20 28 11 15 1012.7 - 0.0
20/06:00am 17.6 15.1 10.9 65 3.7 SSE 15 22 8 12 1012.5 1010.3 0.0
20/05:30am 16.7 14.6 11.0 69 3.1 SSE 13 19 7 10 1012.2 - 0.0
20/05:00am 16.6 13.7 11.1 70 3.0 SE 17 24 9 13 1011.9 - 0.0
20/04:30am 17.1 13.4 11.6 70 3.0 SSE 22 32 12 17 1011.6 - 0.0
20/04:00am 17.5 14.3 11.3 67 3.4 SSE 19 24 10 13 1011.4 - 0.0
20/03:30am 17.8 14.4 11.1 65 3.7 SE 20 32 11 17 1011.2 - 0.0
20/03:00am 17.6 13.0 10.9 65 3.7 SE 26 35 14 19 1011.1 1008.9 0.0
20/02:30am 17.4 13.9 11.0 66 3.5 SE 20 30 11 16 1011.0 - 0.0
20/02:00am 17.1 13.9 11.2 68 3.2 SE 19 26 10 14 1010.8 - 0.0
20/01:30am 16.9 13.1 11.2 69 3.1 SE 22 30 12 16 1010.7 - 0.0
20/01:00am 17.3 13.9 11.1 67 3.4 SSE 20 33 11 18 1010.4 - 0.0
20/12:30am 17.5 13.7 11.3 67 3.4 SSE 22 32 12 17 1010.3 - 0.0
20/12:00am 17.8 14.5 10.9 64 3.8 SSE 19 26 10 14 1010.4 1008.2 0.0
 
Date/Time
WST
Temp
°C
App
Temp
°C
Dew
Point
°C
Rel
Hum
%
Delta-T
°C
Wind Press
QNH
hPa
Press
MSL
hPa
Rain since
9am
mm
Dir  Spd
km/h
Gust
km/h
Spd
kts
Gust
kts
19/11:30pm 18.3 13.7 10.9 62 4.1 SSE 26 39 14 21 1010.4 - 0.0
19/11:00pm 18.7 14.1 11.0 61 4.3 SSE 26 39 14 21 1010.4 - 0.0
19/10:46pm 18.9 13.9 11.0 60 4.4 SSE 28 46 15 25 1010.3 - 0.0
19/10:30pm 19.4 14.0 10.9 58 4.7 SSE 30 44 16 24 1010.3 - 0.0
19/10:00pm 20.2 14.6 10.3 53 5.4 SSE 30 43 16 23 1010.1 - 0.0
19/09:30pm 21.2 16.7 10.1 49 6.1 SSE 24 37 13 20 1009.8 - 0.0
19/09:00pm 22.2 15.7 9.0 43 7.2 SSE 33 52 18 28 1009.5 1007.3 0.0
19/08:52pm 22.5 16.2 9.0 42 7.3 SSE 32 50 17 27 1009.4 - 0.0
19/08:30pm 23.6 18.3 8.5 38 8.2 SSE 26 43 14 23 1009.0 - 0.0
19/08:11pm 24.9 18.1 7.1 32 9.5 SE 32 52 17 28 1008.4 - 0.0
19/08:00pm 25.8 18.9 6.4 29 10.3 SSE 32 46 17 25 1008.0 - 0.0
19/07:30pm 28.2 22.3 -0.9 15 13.7 S 20 32 11 17 1007.2 - 0.0
19/07:00pm 29.2 23.3 -1.0 14 14.3 S 20 30 11 16 1006.6 - 0.0
19/06:30pm 30.4 24.5 -1.1 13 15.1 S 20 32 11 17 1006.1 - 0.0

Other Formats:

Comma delimited format used in spreadsheet applications
http://www.bom.gov.au/fwo/IDW60801/IDW60801.94637.axf

JavaScript Object Notation format (JSON) in row-major order
http://www.bom.gov.au/fwo/IDW60801/IDW60801.94637.json